Time;durP1;ratioP1;P1;durP2;ratioP2;P2;SDS_P1;SDS_P2;PMS_P1;PMS_P2;Temp;Humidity;BMP_temperature;BMP_pressure;BME280_temperature;BME280_humidity;BME280_pressure;Samples;Min_cycle;Max_cycle;Signal;HPM_P1;HPM_P2
2021/09/22 00:00:38;;;;;;;;;;;5.50;99.90;;;;;;5092602;28;19955;-72
2021/09/22 00:03:03;;;;;;;;;;;5.50;99.90;;;;;;5093332;28;20007;-72
2021/09/22 00:05:29;;;;;;;;;;;5.50;99.90;;;;;;5092769;28;19938;-73
2021/09/22 00:07:54;;;;;;;;;;;5.40;99.90;;;;;;5093306;28;19908;-72
2021/09/22 00:10:20;;;;;;;;;;;5.30;99.90;;;;;;5093167;28;19919;-72
2021/09/22 00:12:48;;;;;;;;;;;5.30;99.90;;;;;;5092427;28;19908;-71
2021/09/22 00:15:14;;;;;;;;;;;5.30;99.90;;;;;;5091572;28;19939;-71
2021/09/22 00:17:40;;;;;;;;;;;5.40;99.90;;;;;;5093096;28;20326;-72
2021/09/22 00:20:06;;;;;;;;;;;5.30;99.90;;;;;;5093064;28;19912;-71
2021/09/22 00:22:32;;;;;;;;;;;5.20;99.90;;;;;;5093039;28;19943;-72
2021/09/22 00:24:57;;;;;;;;;;;5.20;99.90;;;;;;5092608;28;19965;-72
2021/09/22 00:27:23;;;;;;;;;;;5.20;99.90;;;;;;5092987;28;19908;-72
2021/09/22 00:29:48;;;;;;;;;;;5.20;99.90;;;;;;5093000;28;19953;-71
2021/09/22 00:32:14;;;;;;;;;;;5.20;99.90;;;;;;5093074;28;19908;-72
2021/09/22 00:34:39;;;;;;;;;;;5.20;99.90;;;;;;5092466;28;19908;-72
2021/09/22 00:37:06;;;;;;;;;;;5.10;99.90;;;;;;5092998;28;20011;-72
2021/09/22 00:39:34;;;;;;;;;;;5.20;99.90;;;;;;5093083;28;20278;-72
2021/09/22 00:42:04;;;;;;;;;;;5.10;99.90;;;;;;5092124;28;19916;-72
2021/09/22 00:44:31;;;;;;;;;;;5.10;99.90;;;;;;5091550;28;19951;-73
2021/09/22 00:46:57;;;;;;;;;;;5.10;99.90;;;;;;5092683;28;19912;-73
2021/09/22 00:49:22;;;;;;;;;;;5.00;99.90;;;;;;5092369;28;20007;-72
2021/09/22 00:51:48;;;;;;;;;;;5.00;99.90;;;;;;5092508;28;19991;-72
2021/09/22 00:54:13;;;;;;;;;;;5.00;99.90;;;;;;5085445;28;19912;-72
2021/09/22 00:56:39;;;;;;;;;;;5.00;99.90;;;;;;5092468;28;19919;-72
2021/09/22 00:59:05;;;;;;;;;;;5.00;99.90;;;;;;5092345;28;20389;-72
2021/09/22 01:01:32;;;;;;;;;;;5.00;99.90;;;;;;5091761;28;19912;-73
2021/09/22 01:04:00;;;;;;;;;;;4.90;99.90;;;;;;5090411;28;19975;-72
2021/09/22 01:06:26;;;;;;;;;;;4.90;99.90;;;;;;5090407;28;19961;-72
2021/09/22 01:08:52;;;;;;;;;;;4.90;99.90;;;;;;5089264;28;19908;-72
2021/09/22 01:11:18;;;;;;;;;;;4.90;99.90;;;;;;5088412;28;19908;-71
2021/09/22 01:13:43;;;;;;;;;;;4.90;99.90;;;;;;5088912;28;20378;-72
2021/09/22 01:16:09;;;;;;;;;;;4.90;99.90;;;;;;5089293;28;19912;-71
2021/09/22 01:18:34;;;;;;;;;;;4.90;99.90;;;;;;5091673;28;19908;-72
2021/09/22 01:21:00;;;;;;;;;;;4.90;99.90;;;;;;5091352;28;19953;-72
2021/09/22 01:23:26;;;;;;;;;;;4.90;99.90;;;;;;5091704;28;19912;-72
2021/09/22 01:25:52;;;;;;;;;;;4.90;99.90;;;;;;5091497;28;19907;-72
2021/09/22 01:28:19;;;;;;;;;;;4.90;99.90;;;;;;5091968;28;20004;-71
2021/09/22 01:30:45;;;;;;;;;;;4.90;99.90;;;;;;5092068;28;19990;-73
2021/09/22 01:33:12;;;;;;;;;;;4.90;99.90;;;;;;5092100;28;19999;-72
2021/09/22 01:35:38;;;;;;;;;;;4.80;99.90;;;;;;5091329;28;20024;-72
2021/09/22 01:38:05;;;;;;;;;;;4.80;99.90;;;;;;5091815;28;19908;-72
2021/09/22 01:40:31;;;;;;;;;;;4.80;99.90;;;;;;5091537;28;20350;-72
2021/09/22 01:42:57;;;;;;;;;;;4.80;99.90;;;;;;5091318;28;19916;-71
2021/09/22 01:45:23;;;;;;;;;;;4.80;99.90;;;;;;5091025;28;19908;-71
2021/09/22 01:47:48;;;;;;;;;;;4.80;99.90;;;;;;5091717;28;20278;-72
2021/09/22 01:50:15;;;;;;;;;;;4.80;99.90;;;;;;5090480;28;20263;-72
2021/09/22 01:52:42;;;;;;;;;;;4.80;99.90;;;;;;5091550;28;19916;-72
2021/09/22 01:55:07;;;;;;;;;;;4.80;99.90;;;;;;5090784;28;19966;-72
2021/09/22 01:57:33;;;;;;;;;;;4.80;99.90;;;;;;5091505;28;19956;-71
2021/09/22 01:59:59;;;;;;;;;;;4.80;99.90;;;;;;5090117;28;19908;-72
2021/09/22 02:02:24;;;;;;;;;;;4.80;99.90;;;;;;5090078;28;20342;-72
2021/09/22 02:04:50;;;;;;;;;;;4.80;99.90;;;;;;5090900;28;19923;-72
2021/09/22 02:07:15;;;;;;;;;;;4.80;99.90;;;;;;5091735;28;19908;-71
2021/09/22 02:09:41;;;;;;;;;;;4.80;99.90;;;;;;5091251;28;19908;-72
2021/09/22 02:12:06;;;;;;;;;;;4.80;99.90;;;;;;5091126;28;19919;-72
2021/09/22 02:14:32;;;;;;;;;;;4.90;99.90;;;;;;5090573;28;19908;-72
2021/09/22 02:16:57;;;;;;;;;;;4.80;99.90;;;;;;5091184;28;19916;-72
2021/09/22 02:19:23;;;;;;;;;;;4.70;99.90;;;;;;5091377;28;19912;-71
2021/09/22 02:21:48;;;;;;;;;;;4.70;99.90;;;;;;5090653;28;19916;-72
2021/09/22 02:24:14;;;;;;;;;;;4.70;99.90;;;;;;5091920;28;20068;-72
2021/09/22 02:26:40;;;;;;;;;;;4.70;99.90;;;;;;5091123;28;19919;-71
2021/09/22 02:29:06;;;;;;;;;;;4.70;99.90;;;;;;5092104;28;19915;-72
2021/09/22 02:31:31;;;;;;;;;;;4.70;99.90;;;;;;5092430;28;20374;-72
2021/09/22 02:33:57;;;;;;;;;;;4.70;99.90;;;;;;5091859;28;20052;-72
2021/09/22 02:36:22;;;;;;;;;;;4.70;99.90;;;;;;5091795;28;19951;-71
2021/09/22 02:38:48;;;;;;;;;;;4.60;99.90;;;;;;5092363;28;19908;-72
2021/09/22 02:41:13;;;;;;;;;;;4.60;99.90;;;;;;5092526;28;19995;-72
2021/09/22 02:43:39;;;;;;;;;;;4.50;99.90;;;;;;5094631;28;19908;-72
2021/09/22 02:46:04;;;;;;;;;;;4.50;99.90;;;;;;5092342;28;19908;-72
2021/09/22 02:48:30;;;;;;;;;;;4.60;99.90;;;;;;5094978;28;20289;-72
2021/09/22 02:50:56;;;;;;;;;;;4.50;99.90;;;;;;5094866;28;19995;-72
2021/09/22 02:53:22;;;;;;;;;;;4.50;99.90;;;;;;5094853;28;20417;-72
2021/09/22 02:55:47;;;;;;;;;;;4.50;99.90;;;;;;5094191;28;20382;-72
2021/09/22 02:58:14;;;;;;;;;;;4.50;99.90;;;;;;5094696;28;19955;-72
2021/09/22 03:00:40;;;;;;;;;;;4.40;99.90;;;;;;5094743;28;19981;-71
2021/09/22 03:03:05;;;;;;;;;;;4.40;99.90;;;;;;5093246;28;19908;-72
2021/09/22 03:05:31;;;;;;;;;;;4.40;99.90;;;;;;5094206;28;19912;-73
2021/09/22 03:07:56;;;;;;;;;;;4.50;99.90;;;;;;5094529;28;19912;-72
2021/09/22 03:10:22;;;;;;;;;;;4.50;99.90;;;;;;5094350;28;20267;-72
2021/09/22 03:12:48;;;;;;;;;;;4.40;99.90;;;;;;5093974;28;19916;-71
2021/09/22 03:15:13;;;;;;;;;;;4.40;99.90;;;;;;5093939;28;19912;-72
2021/09/22 03:17:39;;;;;;;;;;;4.40;99.90;;;;;;5094395;28;19931;-72
2021/09/22 03:20:05;;;;;;;;;;;4.40;99.90;;;;;;5094285;28;19915;-72
2021/09/22 03:22:30;;;;;;;;;;;4.30;99.90;;;;;;5094043;28;19919;-72
2021/09/22 03:24:56;;;;;;;;;;;4.40;99.90;;;;;;5093757;28;19908;-72
2021/09/22 03:27:21;;;;;;;;;;;4.40;99.90;;;;;;5094117;28;19914;-72
2021/09/22 03:29:47;;;;;;;;;;;4.30;99.90;;;;;;5094411;28;19908;-72
2021/09/22 03:32:12;;;;;;;;;;;4.40;99.90;;;;;;5087547;28;19908;-72
2021/09/22 03:34:38;;;;;;;;;;;4.40;99.90;;;;;;5092453;28;19908;-72
2021/09/22 03:37:03;;;;;;;;;;;4.30;99.90;;;;;;5093946;28;20367;-72
2021/09/22 03:39:29;;;;;;;;;;;4.30;99.90;;;;;;5093769;28;19908;-72
2021/09/22 03:41:55;;;;;;;;;;;4.20;99.90;;;;;;5093460;28;19969;-71
2021/09/22 03:44:20;;;;;;;;;;;4.20;99.90;;;;;;5093345;28;20085;-72
2021/09/22 03:46:46;;;;;;;;;;;4.20;99.90;;;;;;5093809;28;20027;-72
2021/09/22 03:49:11;;;;;;;;;;;4.20;99.90;;;;;;5093854;28;20002;-71
2021/09/22 03:51:37;;;;;;;;;;;4.10;99.90;;;;;;5092453;28;19916;-72
2021/09/22 03:54:02;;;;;;;;;;;4.10;99.90;;;;;;5093293;28;19922;-72
2021/09/22 03:56:28;;;;;;;;;;;4.10;99.90;;;;;;5093485;28;20306;-72
2021/09/22 03:58:53;;;;;;;;;;;4.10;99.90;;;;;;5093627;28;19946;-72
2021/09/22 04:01:19;;;;;;;;;;;4.10;99.90;;;;;;5093844;28;20009;-72
2021/09/22 04:03:45;;;;;;;;;;;4.10;99.90;;;;;;5093309;28;19995;-72
2021/09/22 04:06:10;;;;;;;;;;;4.10;99.90;;;;;;5093163;28;20369;-72
2021/09/22 04:08:36;;;;;;;;;;;4.00;99.90;;;;;;5093262;28;19916;-72
2021/09/22 04:11:01;;;;;;;;;;;4.00;99.90;;;;;;5093087;28;20385;-71
2021/09/22 04:13:27;;;;;;;;;;;3.90;99.90;;;;;;5092943;28;20306;-72
2021/09/22 04:15:52;;;;;;;;;;;3.80;99.90;;;;;;5092707;28;19912;-72
2021/09/22 04:18:18;;;;;;;;;;;3.80;99.90;;;;;;5093570;28;19942;-71
2021/09/22 04:20:43;;;;;;;;;;;3.80;99.90;;;;;;5093167;28;20378;-72
2021/09/22 04:23:09;;;;;;;;;;;3.80;99.90;;;;;;5092957;28;20358;-72
2021/09/22 04:25:34;;;;;;;;;;;3.80;99.90;;;;;;5092516;28;19915;-72
2021/09/22 04:28:00;;;;;;;;;;;3.70;99.90;;;;;;5093020;28;19950;-72
2021/09/22 04:30:26;;;;;;;;;;;3.80;99.90;;;;;;5093077;28;20471;-72
2021/09/22 04:32:51;;;;;;;;;;;3.80;99.90;;;;;;5092969;28;20385;-72
2021/09/22 04:35:17;;;;;;;;;;;3.80;99.90;;;;;;5092456;28;19920;-72
2021/09/22 04:37:43;;;;;;;;;;;3.90;99.90;;;;;;5092683;28;19912;-71
2021/09/22 04:40:11;;;;;;;;;;;3.80;99.90;;;;;;5092627;28;20054;-72
2021/09/22 04:42:36;;;;;;;;;;;3.80;99.90;;;;;;5092476;28;20107;-72
2021/09/22 04:45:02;;;;;;;;;;;3.80;99.90;;;;;;5092141;28;19991;-72
2021/09/22 04:47:29;;;;;;;;;;;3.80;99.90;;;;;;5092309;28;19908;-72
2021/09/22 04:49:58;;;;;;;;;;;3.70;99.90;;;;;;5092562;28;19915;-72
2021/09/22 04:52:24;;;;;;;;;;;3.80;99.90;;;;;;5092683;28;19919;-72
2021/09/22 04:54:49;;;;;;;;;;;3.80;99.90;;;;;;5091908;28;19908;-72
2021/09/22 04:57:15;;;;;;;;;;;3.90;99.90;;;;;;5092489;28;19908;-72
2021/09/22 04:59:40;;;;;;;;;;;3.90;99.90;;;;;;5091077;28;19914;-72
2021/09/22 05:02:06;;;;;;;;;;;3.90;99.90;;;;;;5092299;28;19912;-72
2021/09/22 05:04:31;;;;;;;;;;;3.90;99.90;;;;;;5091732;28;20374;-71
2021/09/22 05:06:57;;;;;;;;;;;3.90;99.90;;;;;;5092125;28;20331;-72
2021/09/22 05:09:22;;;;;;;;;;;3.80;99.90;;;;;;5092341;28;20362;-72
2021/09/22 05:11:48;;;;;;;;;;;3.80;99.90;;;;;;5091767;28;19916;-71
2021/09/22 05:14:13;;;;;;;;;;;3.80;99.90;;;;;;5091613;28;19931;-72
2021/09/22 05:16:39;;;;;;;;;;;3.70;99.90;;;;;;5091919;28;20007;-72
2021/09/22 05:19:04;;;;;;;;;;;3.70;99.90;;;;;;5092016;28;20290;-71
2021/09/22 05:21:30;;;;;;;;;;;3.70;99.90;;;;;;5091815;28;20316;-72
2021/09/22 05:23:55;;;;;;;;;;;3.70;99.90;;;;;;5091767;28;20022;-72
2021/09/22 05:26:21;;;;;;;;;;;3.70;99.90;;;;;;5091756;28;19919;-72
2021/09/22 05:28:46;;;;;;;;;;;3.80;99.90;;;;;;5091806;28;19959;-72
2021/09/22 05:31:12;;;;;;;;;;;3.80;99.90;;;;;;5091823;28;19958;-72
2021/09/22 05:33:37;;;;;;;;;;;3.90;99.90;;;;;;5091671;28;19996;-72
2021/09/22 05:36:03;;;;;;;;;;;3.90;99.90;;;;;;5089809;28;19912;-71
2021/09/22 05:38:28;;;;;;;;;;;3.90;99.90;;;;;;5091665;28;19908;-71
2021/09/22 05:40:54;;;;;;;;;;;4.00;99.90;;;;;;5091510;28;20274;-72
2021/09/22 05:43:19;;;;;;;;;;;4.00;99.90;;;;;;5091526;28;19998;-71
2021/09/22 05:45:45;;;;;;;;;;;4.00;99.90;;;;;;5090879;28;19977;-72
2021/09/22 05:48:10;;;;;;;;;;;4.10;99.90;;;;;;5091586;28;19915;-72
2021/09/22 05:50:36;;;;;;;;;;;4.10;99.90;;;;;;5091267;28;19954;-72
2021/09/22 05:53:01;;;;;;;;;;;4.20;99.90;;;;;;5091374;28;19916;-72
2021/09/22 05:55:27;;;;;;;;;;;4.30;99.90;;;;;;5084260;28;20281;-71
2021/09/22 05:57:52;;;;;;;;;;;4.40;99.90;;;;;;5089458;28;19908;-72
2021/09/22 06:00:18;;;;;;;;;;;4.40;99.90;;;;;;5091436;28;19908;-72
2021/09/22 06:02:43;;;;;;;;;;;4.50;99.90;;;;;;5089972;28;19973;-72
2021/09/22 06:05:09;;;;;;;;;;;4.60;99.90;;;;;;5090596;28;20292;-72
2021/09/22 06:07:35;;;;;;;;;;;4.80;99.90;;;;;;5091160;28;20426;-72
2021/09/22 06:10:00;;;;;;;;;;;4.90;99.90;;;;;;5091246;28;19991;-72
2021/09/22 06:12:26;;;;;;;;;;;4.90;99.90;;;;;;5090829;28;20305;-72
2021/09/22 06:14:52;;;;;;;;;;;5.00;99.90;;;;;;5090424;28;20054;-71
2021/09/22 06:17:17;;;;;;;;;;;5.20;99.90;;;;;;5091203;28;20006;-72
2021/09/22 06:19:43;;;;;;;;;;;5.20;99.90;;;;;;5090951;28;19912;-72
2021/09/22 06:22:08;;;;;;;;;;;5.30;99.90;;;;;;5091036;28;20376;-71
2021/09/22 06:24:34;;;;;;;;;;;5.40;99.90;;;;;;5090633;28;20267;-72
2021/09/22 06:26:59;;;;;;;;;;;5.40;99.90;;;;;;5091099;28;20027;-72
2021/09/22 06:29:25;;;;;;;;;;;5.60;99.90;;;;;;5091217;28;19954;-72
2021/09/22 06:31:50;;;;;;;;;;;5.70;99.90;;;;;;5089683;28;19913;-72
2021/09/22 06:34:16;;;;;;;;;;;5.90;99.90;;;;;;5090431;28;19922;-72
2021/09/22 06:36:41;;;;;;;;;;;6.00;99.90;;;;;;5090856;28;20370;-72
2021/09/22 06:39:07;;;;;;;;;;;6.10;99.90;;;;;;5089582;28;19998;-72
2021/09/22 06:41:33;;;;;;;;;;;6.30;99.90;;;;;;5090687;28;19912;-71
2021/09/22 06:43:59;;;;;;;;;;;6.40;99.90;;;;;;5090322;28;19935;-72
2021/09/22 06:46:25;;;;;;;;;;;6.50;99.90;;;;;;5090631;28;19915;-72
2021/09/22 06:48:50;;;;;;;;;;;6.60;99.90;;;;;;5090565;28;19943;-72
2021/09/22 06:51:18;;;;;;;;;;;6.80;99.90;;;;;;5090796;28;19944;-72
2021/09/22 06:53:46;;;;;;;;;;;7.00;99.90;;;;;;5090766;28;20419;-72
2021/09/22 06:56:12;;;;;;;;;;;7.20;99.90;;;;;;5090408;28;19920;-72
2021/09/22 06:58:38;;;;;;;;;;;7.30;99.90;;;;;;5090770;28;19908;-72
2021/09/22 07:01:03;;;;;;;;;;;7.40;99.90;;;;;;5090757;28;20286;-72
2021/09/22 07:03:29;;;;;;;;;;;7.60;99.90;;;;;;5090344;28;19924;-72
2021/09/22 07:05:54;;;;;;;;;;;7.80;99.90;;;;;;5090368;28;19919;-72
2021/09/22 07:08:20;;;;;;;;;;;7.90;99.90;;;;;;5090551;28;20383;-72
2021/09/22 07:10:46;;;;;;;;;;;8.10;99.90;;;;;;5087241;28;19909;-72
2021/09/22 07:13:11;;;;;;;;;;;8.30;99.90;;;;;;5094519;28;19908;-72
2021/09/22 07:15:37;;;;;;;;;;;8.60;99.90;;;;;;5093733;28;19919;-72
2021/09/22 07:18:02;;;;;;;;;;;8.70;99.90;;;;;;5094120;28;19908;-72
2021/09/22 07:20:28;;;;;;;;;;;8.90;99.90;;;;;;5092971;28;19912;-71
2021/09/22 07:22:53;;;;;;;;;;;9.10;99.90;;;;;;5094377;28;19916;-72
2021/09/22 07:25:19;;;;;;;;;;;9.20;99.90;;;;;;5094030;28;19931;-72
2021/09/22 07:27:44;;;;;;;;;;;9.40;99.90;;;;;;5094108;28;20381;-72
2021/09/22 07:30:13;;;;;;;;;;;9.50;99.90;;;;;;5094085;28;19962;-72
2021/09/22 07:32:39;;;;;;;;;;;9.50;99.90;;;;;;5092535;28;20003;-72
2021/09/22 07:35:05;;;;;;;;;;;9.60;99.90;;;;;;5093493;28;19908;-72
2021/09/22 07:37:30;;;;;;;;;;;9.70;99.90;;;;;;5093899;28;19908;-72
2021/09/22 07:39:56;;;;;;;;;;;9.90;99.90;;;;;;5093842;28;19920;-72
2021/09/22 07:42:21;;;;;;;;;;;10.20;99.90;;;;;;5093544;28;20289;-72
2021/09/22 07:44:47;;;;;;;;;;;10.60;99.90;;;;;;5093321;28;19955;-72
2021/09/22 07:47:14;;;;;;;;;;;11.10;99.90;;;;;;5093705;28;19908;-72
2021/09/22 07:49:40;;;;;;;;;;;11.80;99.90;;;;;;5093741;28;19908;-72
2021/09/22 07:52:06;;;;;;;;;;;12.30;99.90;;;;;;5093320;28;19954;-73
2021/09/22 07:54:31;;;;;;;;;;;12.90;99.90;;;;;;5092584;28;19909;-72
2021/09/22 07:56:57;;;;;;;;;;;13.50;99.90;;;;;;5093457;28;19919;-72
2021/09/22 07:59:22;;;;;;;;;;;13.70;99.90;;;;;;5093613;28;19908;-72
2021/09/22 08:01:48;;;;;;;;;;;14.10;99.90;;;;;;5093386;28;19961;-72
2021/09/22 08:04:14;;;;;;;;;;;14.10;99.90;;;;;;5092873;28;19916;-73
2021/09/22 08:06:40;;;;;;;;;;;14.80;99.90;;;;;;5093394;28;19916;-72
2021/09/22 08:09:06;;;;;;;;;;;15.40;99.90;;;;;;5093464;28;19908;-72
2021/09/22 08:11:31;;;;;;;;;;;15.70;99.90;;;;;;5093218;28;19908;-73
2021/09/22 08:13:57;;;;;;;;;;;16.30;99.90;;;;;;5092895;28;19982;-72
2021/09/22 08:16:22;;;;;;;;;;;16.60;99.90;;;;;;5092867;28;19919;-72
2021/09/22 08:18:48;;;;;;;;;;;17.10;99.90;;;;;;5093247;28;19908;-72
2021/09/22 08:21:14;;;;;;;;;;;17.50;99.90;;;;;;5092557;28;20397;-73
2021/09/22 08:23:39;;;;;;;;;;;17.50;99.90;;;;;;5093073;28;19995;-73
2021/09/22 08:26:05;;;;;;;;;;;17.40;99.90;;;;;;5092634;28;19908;-72
2021/09/22 08:28:31;;;;;;;;;;;18.00;99.90;;;;;;5093132;28;19908;-73
2021/09/22 08:30:56;;;;;;;;;;;17.80;99.90;;;;;;5092786;28;19912;-73
2021/09/22 08:33:21;;;;;;;;;;;17.80;99.90;;;;;;5091697;28;19912;-73
2021/09/22 08:35:47;;;;;;;;;;;18.20;99.90;;;;;;5092257;28;20247;-73
2021/09/22 08:38:13;;;;;;;;;;;18.60;99.90;;;;;;5093164;28;19954;-72
2021/09/22 08:40:38;;;;;;;;;;;18.40;99.90;;;;;;5092847;28;19917;-73
2021/09/22 08:43:04;;;;;;;;;;;17.80;99.90;;;;;;5092339;28;19943;-73
2021/09/22 08:45:30;;;;;;;;;;;17.20;99.90;;;;;;5091994;28;19908;-73
2021/09/22 08:47:56;;;;;;;;;;;17.60;99.90;;;;;;5092629;28;20290;-73
2021/09/22 08:50:21;;;;;;;;;;;18.20;99.90;;;;;;5092569;28;19908;-73
2021/09/22 08:52:48;;;;;;;;;;;18.50;99.90;;;;;;5092561;28;19912;-73
2021/09/22 08:55:14;;;;;;;;;;;18.50;99.60;;;;;;5091927;28;19943;-73
2021/09/22 08:57:39;;;;;;;;;;;18.90;99.90;;;;;;5092494;28;19950;-73
2021/09/22 09:00:07;;;;;;;;;;;19.70;98.20;;;;;;5092399;28;19908;-73
2021/09/22 09:02:40;;;;;;;;;;;20.00;96.50;;;;;;5092358;28;20374;-73
2021/09/22 09:05:12;;;;;;;;;;;19.80;96.40;;;;;;5091599;28;20018;-73
2021/09/22 09:07:47;;;;;;;;;;;20.60;96.50;;;;;;5092152;28;19948;-73
2021/09/22 09:10:13;;;;;;;;;;;20.70;98.50;;;;;;5092199;28;19908;-73
2021/09/22 09:12:38;;;;;;;;;;;21.70;97.10;;;;;;5091814;28;20003;-73
2021/09/22 09:15:08;;;;;;;;;;;21.40;95.70;;;;;;5091417;28;20343;-72
2021/09/22 09:17:40;;;;;;;;;;;20.80;94.50;;;;;;5092111;28;20361;-72
2021/09/22 09:20:10;;;;;;;;;;;21.60;94.00;;;;;;5085456;28;19920;-72
2021/09/22 09:22:35;;;;;;;;;;;21.20;93.30;;;;;;5091108;28;20375;-73
2021/09/22 09:25:01;;;;;;;;;;;20.50;93.40;;;;;;5091370;28;19953;-73
2021/09/22 09:27:30;;;;;;;;;;;22.00;91.40;;;;;;5090618;28;19919;-73
2021/09/22 09:29:56;;;;;;;;;;;22.70;91.00;;;;;;5091764;28;19908;-73
2021/09/22 09:32:22;;;;;;;;;;;22.20;88.40;;;;;;5091342;28;19909;-73
2021/09/22 09:34:57;;;;;;;;;;;20.30;91.60;;;;;;5090854;28;20350;-73
2021/09/22 09:37:30;;;;;;;;;;;20.20;93.20;;;;;;5091798;28;19912;-75
2021/09/22 09:39:56;;;;;;;;;;;19.70;91.70;;;;;;5091767;28;19915;-75
2021/09/22 09:42:27;;;;;;;;;;;19.60;94.20;;;;;;5091395;28;19908;-75
2021/09/22 09:44:55;;;;;;;;;;;20.40;91.80;;;;;;5091121;28;20384;-75
2021/09/22 09:47:20;;;;;;;;;;;20.50;94.50;;;;;;5090935;28;19915;-75
2021/09/22 09:49:46;;;;;;;;;;;20.70;89.20;;;;;;5090023;28;19908;-74
2021/09/22 09:52:11;;;;;;;;;;;22.60;86.00;;;;;;5091531;28;20381;-74
2021/09/22 09:54:37;;;;;;;;;;;23.60;89.20;;;;;;5091012;28;19912;-74
2021/09/22 09:57:31;;;;;;;;;;;23.50;84.70;;;;;;5091397;28;20323;-74
2021/09/22 09:59:58;;;;;;;;;;;23.60;86.50;;;;;;5081362;28;19912;-73
2021/09/22 10:02:30;;;;;;;;;;;24.00;81.40;;;;;;5091313;28;20294;-72
2021/09/22 10:04:57;;;;;;;;;;;22.80;86.80;;;;;;5090732;28;19917;-75
2021/09/22 10:07:23;;;;;;;;;;;22.90;86.10;;;;;;5091505;28;19915;-76
2021/09/22 10:09:50;;;;;;;;;;;22.20;86.90;;;;;;5091303;28;20278;-74
2021/09/22 10:12:17;;;;;;;;;;;22.30;85.20;;;;;;5091064;28;19912;-75
2021/09/22 10:14:44;;;;;;;;;;;22.90;86.80;;;;;;5090560;28;19947;-75
2021/09/22 10:17:10;;;;;;;;;;;23.70;84.60;;;;;;5091027;28;20398;-76
2021/09/22 10:19:36;;;;;;;;;;;23.90;84.40;;;;;;5091025;28;19955;-76
2021/09/22 10:22:01;;;;;;;;;;;22.60;83.80;;;;;;5090974;28;20281;-76
2021/09/22 10:24:27;;;;;;;;;;;23.20;86.40;;;;;;5092057;28;19947;-75
2021/09/22 10:26:53;;;;;;;;;;;23.60;83.40;;;;;;5090360;28;19954;-74
2021/09/22 10:29:24;;;;;;;;;;;21.00;85.30;;;;;;5091770;28;19914;-75
2021/09/22 10:31:49;;;;;;;;;;;20.20;86.80;;;;;;5090005;28;19947;-75
2021/09/22 10:34:25;;;;;;;;;;;20.40;89.60;;;;;;5090794;28;19943;-75
2021/09/22 10:36:51;;;;;;;;;;;20.00;88.60;;;;;;5088281;28;19913;-75
2021/09/22 10:39:29;;;;;;;;;;;18.10;90.90;;;;;;5092097;28;20370;-75
2021/09/22 10:41:54;;;;;;;;;;;19.50;93.50;;;;;;5091969;28;20431;-76
2021/09/22 10:44:30;;;;;;;;;;;21.20;88.40;;;;;;5091689;28;19908;-75
2021/09/22 10:47:15;;;;;;;;;;;20.70;91.20;;;;;;5090303;28;19908;-75
2021/09/22 10:49:41;;;;;;;;;;;19.30;91.70;;;;;;5095506;28;19954;-74
2021/09/22 10:52:06;;;;;;;;;;;19.20;90.90;;;;;;5095202;28;19916;-75
2021/09/22 10:54:32;;;;;;;;;;;19.40;91.30;;;;;;5094596;28;19908;-75
2021/09/22 10:56:58;;;;;;;;;;;20.60;91.40;;;;;;5094566;28;19916;-75
2021/09/22 10:59:25;;;;;;;;;;;23.00;89.10;;;;;;5094905;28;19948;-76
2021/09/22 11:01:51;;;;;;;;;;;24.60;81.90;;;;;;5094714;28;19954;-75
2021/09/22 11:04:17;;;;;;;;;;;24.30;82.50;;;;;;5091234;28;19920;-75
2021/09/22 11:06:51;;;;;;;;;;;24.20;79.20;;;;;;5093562;28;20065;-75
2021/09/22 11:09:17;;;;;;;;;;;25.70;75.90;;;;;;5094457;28;19912;-75
2021/09/22 11:11:55;;;;;;;;;;;26.70;78.00;;;;;;5094150;28;19919;-75
2021/09/22 11:14:26;;;;;;;;;;;26.10;75.00;;;;;;5093874;28;19908;-75
2021/09/22 11:16:53;;;;;;;;;;;26.00;72.20;;;;;;5094214;28;20366;-73
2021/09/22 11:19:20;;;;;;;;;;;25.90;73.70;;;;;;5092973;28;19983;-75
2021/09/22 11:21:46;;;;;;;;;;;26.50;75.00;;;;;;5094237;28;19912;-76
2021/09/22 11:24:14;;;;;;;;;;;26.60;71.40;;;;;;5092387;28;19908;-74
2021/09/22 11:26:53;;;;;;;;;;;25.90;73.70;;;;;;5094464;28;19908;-75
2021/09/22 11:29:31;;;;;;;;;;;25.80;70.70;;;;;;5094178;28;19915;-73
2021/09/22 11:31:57;;;;;;;;;;;26.10;71.80;;;;;;5088166;28;19919;-75
2021/09/22 11:34:24;;;;;;;;;;;26.60;71.30;;;;;;5093608;28;19908;-75
2021/09/22 11:37:08;;;;;;;;;;;25.60;71.40;;;;;;5094257;28;19916;-75
2021/09/22 11:39:35;;;;;;;;;;;26.40;71.40;;;;;;5092868;28;20484;-75
2021/09/22 11:42:00;;;;;;;;;;;25.40;72.80;;;;;;5092371;28;19939;-76
2021/09/22 11:44:30;;;;;;;;;;;26.60;69.50;;;;;;5093501;28;19912;-76
2021/09/22 11:46:59;;;;;;;;;;;26.20;71.90;;;;;;5093759;28;19908;-75
2021/09/22 11:49:30;;;;;;;;;;;23.80;73.30;;;;;;5093999;28;19912;-75
2021/09/22 11:52:03;;;;;;;;;;;21.20;78.80;;;;;;5092433;28;19915;-75
2021/09/22 11:54:29;;;;;;;;;;;19.20;84.70;;;;;;5093228;28;20396;-76
2021/09/22 11:57:02;;;;;;;;;;;18.50;87.30;;;;;;5092491;28;19912;-75
2021/09/22 11:59:34;;;;;;;;;;;18.60;88.50;;;;;;5092548;28;19916;-75
2021/09/22 12:02:01;;;;;;;;;;;18.60;89.30;;;;;;5074770;28;19915;-75
2021/09/22 12:04:30;;;;;;;;;;;18.20;88.90;;;;;;5092708;28;19953;-75
2021/09/22 12:06:56;;;;;;;;;;;18.00;90.40;;;;;;5095113;28;19908;-74
2021/09/22 12:09:21;;;;;;;;;;;17.80;92.00;;;;;;5094056;28;19915;-76
2021/09/22 12:12:03;;;;;;;;;;;17.90;90.50;;;;;;5092458;28;19916;-76
2021/09/22 12:14:28;;;;;;;;;;;17.90;92.20;;;;;;5084795;28;19954;-74
2021/09/22 12:17:04;;;;;;;;;;;17.90;91.00;;;;;;5090924;28;19947;-76
2021/09/22 12:19:29;;;;;;;;;;;17.90;92.00;;;;;;5087547;28;19919;-76
2021/09/22 12:21:55;;;;;;;;;;;18.30;92.90;;;;;;5092916;28;20011;-76
2021/09/22 12:24:20;;;;;;;;;;;18.00;91.40;;;;;;5092059;28;19912;-74
2021/09/22 12:26:50;;;;;;;;;;;17.60;91.70;;;;;;5092928;28;19915;-76
2021/09/22 12:29:17;;;;;;;;;;;17.80;92.10;;;;;;5093515;28;19915;-76
2021/09/22 12:31:43;;;;;;;;;;;18.00;92.30;;;;;;5093472;28;19908;-75
2021/09/22 12:34:15;;;;;;;;;;;18.00;91.40;;;;;;5093265;28;20371;-75
2021/09/22 12:36:42;;;;;;;;;;;17.70;92.50;;;;;;5093348;28;19943;-73
2021/09/22 12:39:13;;;;;;;;;;;18.10;93.40;;;;;;5093856;28;19912;-74
2021/09/22 12:41:38;;;;;;;;;;;18.20;92.90;;;;;;5093524;28;19909;-75
2021/09/22 12:44:04;;;;;;;;;;;17.70;92.10;;;;;;5092872;28;19999;-75
2021/09/22 12:46:33;;;;;;;;;;;17.70;94.60;;;;;;5093304;28;19914;-75
2021/09/22 12:49:13;;;;;;;;;;;17.60;93.50;;;;;;5093566;28;19908;-75
2021/09/22 12:51:45;;;;;;;;;;;17.80;93.60;;;;;;5093008;28;19996;-75
2021/09/22 12:54:12;;;;;;;;;;;17.90;93.60;;;;;;5093929;28;19914;-75
2021/09/22 12:56:38;;;;;;;;;;;18.20;93.00;;;;;;5094902;28;19916;-75
2021/09/22 12:59:16;;;;;;;;;;;18.10;92.90;;;;;;5095898;28;19961;-75
2021/09/22 13:01:42;;;;;;;;;;;18.00;94.80;;;;;;5092988;28;20344;-75
2021/09/22 13:04:07;;;;;;;;;;;18.00;94.00;;;;;;5092583;28;19963;-75
2021/09/22 13:06:33;;;;;;;;;;;17.90;93.70;;;;;;5095423;28;19911;-75
2021/09/22 13:08:59;;;;;;;;;;;17.70;92.60;;;;;;5091314;28;20298;-75
2021/09/22 13:11:38;;;;;;;;;;;17.90;93.80;;;;;;5088746;28;19943;-75
2021/09/22 13:14:04;;;;;;;;;;;17.70;93.90;;;;;;5091622;28;19908;-75
2021/09/22 13:16:37;;;;;;;;;;;18.10;94.10;;;;;;5089201;28;19916;-75
2021/09/22 13:19:04;;;;;;;;;;;18.30;94.10;;;;;;5091560;28;20258;-75
2021/09/22 13:21:30;;;;;;;;;;;17.80;93.90;;;;;;5091417;28;19923;-73
2021/09/22 13:23:57;;;;;;;;;;;17.90;94.10;;;;;;5092060;28;20002;-75
2021/09/22 13:26:23;;;;;;;;;;;17.70;94.50;;;;;;5091367;28;19908;-74
2021/09/22 13:28:49;;;;;;;;;;;17.80;94.30;;;;;;5076647;28;20404;-76
2021/09/22 13:31:15;;;;;;;;;;;17.70;94.60;;;;;;5094625;28;19908;-74
2021/09/22 13:33:41;;;;;;;;;;;17.60;94.80;;;;;;5092767;28;19908;-75
2021/09/22 13:36:07;;;;;;;;;;;17.30;94.60;;;;;;5086848;28;20297;-74
2021/09/22 13:38:33;;;;;;;;;;;17.30;94.90;;;;;;5097490;28;19920;-72
2021/09/22 13:40:58;;;;;;;;;;;17.10;95.80;;;;;;5094647;28;20279;-76
2021/09/22 13:43:26;;;;;;;;;;;17.30;94.70;;;;;;5098040;28;19908;-76
2021/09/22 13:45:55;;;;;;;;;;;17.20;95.00;;;;;;5102348;28;19919;-75
2021/09/22 13:48:20;;;;;;;;;;;17.40;95.20;;;;;;5095428;28;19915;-76
2021/09/22 13:50:47;;;;;;;;;;;17.50;95.10;;;;;;5096175;28;20285;-76
2021/09/22 13:53:16;;;;;;;;;;;17.60;95.40;;;;;;5097746;28;19915;-76
2021/09/22 13:55:42;;;;;;;;;;;17.50;95.70;;;;;;5089631;28;19919;-75
2021/09/22 13:58:08;;;;;;;;;;;17.30;96.00;;;;;;5089550;28;20057;-75
2021/09/22 14:00:34;;;;;;;;;;;17.40;95.10;;;;;;5091512;28;19957;-75
2021/09/22 14:03:00;;;;;;;;;;;17.50;95.10;;;;;;5084856;28;19920;-75
2021/09/22 14:05:25;;;;;;;;;;;17.30;94.60;;;;;;5090783;28;20363;-75
2021/09/22 14:07:51;;;;;;;;;;;17.40;94.80;;;;;;5087867;28;19916;-75
2021/09/22 14:10:17;;;;;;;;;;;17.30;94.30;;;;;;5084709;28;20000;-75
2021/09/22 14:12:42;;;;;;;;;;;17.60;94.50;;;;;;5089344;28;19957;-75
2021/09/22 14:15:08;;;;;;;;;;;17.70;94.50;;;;;;5090039;28;20297;-74
2021/09/22 14:17:34;;;;;;;;;;;17.30;95.30;;;;;;5091500;28;19912;-75
2021/09/22 14:19:59;;;;;;;;;;;17.60;95.60;;;;;;5085729;28;19920;-74